createdAt,value
2022-12-13T00:00:14.952Z,10.73
2022-12-13T00:02:44.120Z,9.50
2022-12-13T00:05:13.857Z,9.63
2022-12-13T00:07:44.105Z,10.70
2022-12-13T00:10:14.579Z,9.63
2022-12-13T00:12:43.600Z,8.80
2022-12-13T00:15:13.507Z,9.50
2022-12-13T00:17:43.301Z,8.53
2022-12-13T00:20:13.974Z,9.00
2022-12-13T00:22:42.919Z,9.47
2022-12-13T00:25:13.760Z,9.23
2022-12-13T00:27:42.946Z,8.67
2022-12-13T00:30:12.610Z,8.90
2022-12-13T00:32:41.548Z,8.33
2022-12-13T00:35:10.933Z,8.73
2022-12-13T00:37:39.880Z,8.57
2022-12-13T00:40:10.025Z,7.97
2022-12-13T00:42:40.417Z,8.33
2022-12-13T00:45:10.965Z,8.17
2022-12-13T00:47:39.940Z,7.27
2022-12-13T00:50:09.512Z,7.80
2022-12-13T00:52:38.590Z,8.00
2022-12-13T00:55:08.560Z,7.63
2022-12-13T00:57:37.531Z,7.80
2022-12-13T01:00:09.557Z,8.23
2022-12-13T01:02:38.514Z,8.57
2022-12-13T01:05:07.964Z,8.10
2022-12-13T01:07:37.675Z,8.87
2022-12-13T01:10:08.605Z,8.17
2022-12-13T01:12:38.128Z,8.77
2022-12-13T01:15:10.100Z,8.73
2022-12-13T01:17:39.115Z,8.37
2022-12-13T01:20:09.652Z,7.70
2022-12-13T01:22:38.685Z,7.97
2022-12-13T01:25:08.166Z,7.47
2022-12-13T01:27:37.119Z,7.90
2022-12-13T01:30:08.656Z,15.20
2022-12-13T01:32:38.292Z,7.97
2022-12-13T01:35:07.878Z,7.53
2022-12-13T01:37:37.686Z,7.63
2022-12-13T01:40:15.830Z,7.83
2022-12-13T01:42:45.955Z,8.60
2022-12-13T01:45:25.642Z,8.87
2022-12-13T01:47:58.190Z,8.97
2022-12-13T01:50:32.180Z,8.73
2022-12-13T01:53:02.442Z,8.33
2022-12-13T01:55:41.679Z,8.50
2022-12-13T01:58:12.239Z,8.47
2022-12-13T02:00:44.106Z,7.97
2022-12-13T02:03:21.640Z,8.83
2022-12-13T02:05:56.600Z,8.17
2022-12-13T02:08:30.481Z,8.40
2022-12-13T02:11:05.963Z,8.83
2022-12-13T02:13:37.420Z,8.40
2022-12-13T02:16:14.318Z,7.80
2022-12-13T02:19:05.881Z,8.13
2022-12-13T02:21:45.101Z,8.90
2022-12-13T02:24:43.404Z,8.63
2022-12-13T02:27:30.351Z,7.83
2022-12-13T02:30:27.375Z,8.37
2022-12-13T02:33:31.002Z,8.47
2022-12-13T02:36:10.449Z,8.00
2022-12-13T02:38:50.060Z,7.73
2022-12-13T02:41:24.841Z,7.90
2022-12-13T02:44:01.261Z,8.10
2022-12-13T02:46:37.617Z,7.63
2022-12-13T02:49:08.485Z,8.00
2022-12-13T02:51:40.856Z,8.67
2022-12-13T02:54:10.121Z,8.20
2022-12-13T02:56:39.103Z,8.03
2022-12-13T02:59:14.420Z,8.20
2022-12-13T03:02:09.534Z,9.17
2022-12-13T03:05:06.856Z,8.10
2022-12-13T03:07:40.567Z,8.23
2022-12-13T03:10:17.071Z,7.93
2022-12-13T03:13:11.373Z,8.90
2022-12-13T03:15:44.305Z,8.63
2022-12-13T03:18:19.159Z,8.93
2022-12-13T03:20:50.050Z,9.53
2022-12-13T03:23:20.157Z,8.50
2022-12-13T03:25:52.244Z,7.90
2022-12-13T03:28:21.780Z,8.23
2022-12-13T03:30:50.859Z,8.73
2022-12-13T03:33:22.339Z,9.00
2022-12-13T03:35:51.588Z,9.07
2022-12-13T03:38:22.041Z,9.27
2022-12-13T03:40:54.821Z,9.83
2022-12-13T03:43:24.070Z,9.27
2022-12-13T03:45:53.602Z,9.07
2022-12-13T03:48:24.630Z,10.20
2022-12-13T03:50:55.504Z,10.13
2022-12-13T03:53:33.813Z,9.97
2022-12-13T03:56:05.567Z,10.67
2022-12-13T03:58:37.970Z,10.30
2022-12-13T04:01:11.707Z,11.27
2022-12-13T04:03:44.294Z,10.73
2022-12-13T04:06:22.147Z,10.47
2022-12-13T04:08:52.335Z,11.20
2022-12-13T04:11:42.653Z,11.53
2022-12-13T04:14:22.839Z,11.40
2022-12-13T04:16:52.889Z,12.03
2022-12-13T04:19:24.211Z,11.23
2022-12-13T04:21:54.581Z,11.17
2022-12-13T04:24:31.360Z,11.33
2022-12-13T04:27:01.734Z,12.63
2022-12-13T04:29:34.225Z,11.67
2022-12-13T04:32:05.225Z,12.00
2022-12-13T04:35:01.057Z,12.60
2022-12-13T04:37:30.766Z,11.30
2022-12-13T04:40:00.795Z,12.20
2022-12-13T04:42:30.444Z,11.60
2022-12-13T04:44:59.453Z,11.80
2022-12-13T04:47:28.824Z,12.20
2022-12-13T04:49:59.483Z,12.07
2022-12-13T04:52:29.105Z,13.20
2022-12-13T04:54:58.104Z,12.73
2022-12-13T04:57:27.082Z,13.00
2022-12-13T04:59:56.201Z,12.53
2022-12-13T05:02:25.756Z,12.83
2022-12-13T05:04:54.754Z,13.63
2022-12-13T05:07:28.108Z,12.73
2022-12-13T05:09:57.081Z,13.57
2022-12-13T05:12:26.091Z,12.67
2022-12-13T05:14:55.388Z,12.63
2022-12-13T05:17:24.644Z,11.77
2022-12-13T05:19:53.631Z,12.33
2022-12-13T05:22:22.645Z,12.63
2022-12-13T05:24:53.101Z,12.67
2022-12-13T05:27:25.250Z,11.87
2022-12-13T05:30:03.114Z,12.90
2022-12-13T05:32:44.311Z,12.40
2022-12-13T05:35:21.655Z,12.40
2022-12-13T05:37:53.483Z,12.20
2022-12-13T05:40:25.731Z,11.80
2022-12-13T05:43:01.397Z,11.53
2022-12-13T05:45:31.322Z,11.70
2022-12-13T05:48:00.525Z,12.00
2022-12-13T05:50:29.555Z,11.23
2022-12-13T05:52:58.661Z,11.17
2022-12-13T05:55:29.179Z,11.87
2022-12-13T05:58:02.419Z,11.43
2022-12-13T06:00:31.810Z,11.57
2022-12-13T06:03:02.017Z,11.50
2022-12-13T06:05:31.539Z,11.40
2022-12-13T06:08:00.818Z,10.63
2022-12-13T06:10:35.079Z,10.60
2022-12-13T06:13:21.417Z,10.57
2022-12-13T06:16:01.268Z,10.00
2022-12-13T06:18:33.273Z,10.47
2022-12-13T06:21:04.337Z,10.17
2022-12-13T06:23:34.142Z,9.77
2022-12-13T06:26:06.754Z,10.10
2022-12-13T06:28:35.844Z,10.63
2022-12-13T06:31:06.132Z,9.63
2022-12-13T06:33:36.930Z,9.80
2022-12-13T06:36:06.881Z,9.97
2022-12-13T06:38:43.106Z,9.90
2022-12-13T06:41:16.184Z,10.17
2022-12-13T06:43:45.842Z,10.13
2022-12-13T06:46:15.708Z,10.00
2022-12-13T06:48:45.274Z,10.00
2022-12-13T06:51:23.045Z,9.40
2022-12-13T06:54:02.543Z,10.10
2022-12-13T06:56:33.476Z,9.83
2022-12-13T06:59:02.538Z,9.20
2022-12-13T07:01:36.804Z,9.97
2022-12-13T07:04:30.110Z,9.97
2022-12-13T07:06:55.998Z,9.63
2022-12-13T07:09:31.704Z,8.17
2022-12-13T07:12:02.384Z,8.67
2022-12-13T07:14:40.837Z,8.40
2022-12-13T07:17:11.134Z,8.63
2022-12-13T07:19:40.524Z,8.23
2022-12-13T07:22:09.542Z,9.47
2022-12-13T07:24:38.698Z,9.43
2022-12-13T07:27:09.150Z,8.30
2022-12-13T07:29:38.725Z,7.97
2022-12-13T07:32:07.802Z,8.50
2022-12-13T07:34:37.445Z,8.13
2022-12-13T07:37:06.553Z,8.00
2022-12-13T07:39:35.614Z,7.93
2022-12-13T07:42:04.658Z,8.53
2022-12-13T07:44:36.006Z,7.53
2022-12-13T07:47:05.264Z,8.23
2022-12-13T07:49:34.395Z,8.00
2022-12-13T07:52:03.459Z,7.53
2022-12-13T07:54:32.464Z,8.37
2022-12-13T07:57:04.515Z,8.27
2022-12-13T07:59:35.529Z,8.10
2022-12-13T08:02:04.912Z,8.53
2022-12-13T08:04:37.942Z,8.33
2022-12-13T08:07:09.287Z,8.40
2022-12-13T08:09:39.150Z,8.77
2022-12-13T08:12:08.875Z,8.73
2022-12-13T08:14:41.311Z,8.80
2022-12-13T08:17:10.431Z,8.43
2022-12-13T08:19:39.480Z,8.60
2022-12-13T08:22:14.317Z,8.97
2022-12-13T08:24:43.498Z,8.40
2022-12-13T08:27:12.577Z,8.43
2022-12-13T08:29:43.090Z,8.97
2022-12-13T08:32:14.314Z,9.20
2022-12-13T08:34:45.821Z,9.00
2022-12-13T08:37:15.549Z,9.50
2022-12-13T08:39:45.162Z,9.00
2022-12-13T08:42:18.868Z,8.53
2022-12-13T08:44:52.350Z,8.87
2022-12-13T08:47:25.539Z,9.73
2022-12-13T08:50:02.196Z,9.10
2022-12-13T08:52:40.170Z,9.67
2022-12-13T08:55:11.173Z,10.20
2022-12-13T08:57:41.355Z,9.17
2022-12-13T09:00:14.423Z,8.93
2022-12-13T09:02:43.907Z,9.23
2022-12-13T09:05:33.891Z,9.20
2022-12-13T09:08:24.867Z,9.43
2022-12-13T09:10:59.216Z,11.63
2022-12-13T09:13:32.025Z,9.03
2022-12-13T09:16:06.051Z,9.10
2022-12-13T09:18:44.020Z,9.13
2022-12-13T09:21:22.491Z,9.87
2022-12-13T09:24:02.309Z,8.50
2022-12-13T09:26:38.202Z,8.57
2022-12-13T09:29:11.142Z,9.13
2022-12-13T09:31:42.501Z,8.07
2022-12-13T09:34:12.348Z,9.23
2022-12-13T09:36:42.451Z,8.27
2022-12-13T09:39:13.450Z,8.90
2022-12-13T09:41:45.518Z,7.97
2022-12-13T09:44:30.602Z,9.13
2022-12-13T09:47:13.630Z,8.20
2022-12-13T09:49:51.762Z,8.90
2022-12-13T09:52:25.056Z,8.57
2022-12-13T09:54:57.240Z,7.87
2022-12-13T09:57:31.872Z,8.00
2022-12-13T10:00:06.409Z,8.37
2022-12-13T10:02:46.644Z,8.43
2022-12-13T10:05:34.109Z,9.13
2022-12-13T10:08:09.861Z,7.87
2022-12-13T10:10:39.422Z,8.33
2022-12-13T10:13:18.952Z,8.23
2022-12-13T10:15:52.471Z,8.43
2022-12-13T10:18:32.835Z,8.13
2022-12-13T10:21:05.119Z,7.97
2022-12-13T10:23:53.014Z,8.63
2022-12-13T10:26:25.182Z,8.70
2022-12-13T10:29:04.635Z,8.20
2022-12-13T10:31:42.256Z,8.47
2022-12-13T10:34:24.016Z,8.23
2022-12-13T10:36:53.760Z,7.90
2022-12-13T10:39:41.465Z,8.67
2022-12-13T10:42:22.740Z,8.20
2022-12-13T10:45:12.092Z,8.87
2022-12-13T10:47:45.724Z,8.93
2022-12-13T10:50:26.662Z,9.10
2022-12-13T10:52:57.621Z,8.37
2022-12-13T10:55:30.538Z,8.77
2022-12-13T10:58:02.066Z,8.57
2022-12-13T11:00:41.708Z,8.20
2022-12-13T11:03:14.670Z,8.60
2022-12-13T11:05:47.071Z,8.17
2022-12-13T11:08:22.262Z,8.07
2022-12-13T11:10:59.995Z,8.73
2022-12-13T11:13:37.087Z,9.07
2022-12-13T11:16:18.456Z,9.30
2022-12-13T11:18:53.930Z,9.27
2022-12-13T11:21:29.314Z,9.37
2022-12-13T11:24:01.908Z,9.73
2022-12-13T11:26:33.544Z,9.17
2022-12-13T11:29:24.191Z,8.87
2022-12-13T11:32:01.995Z,8.50
2022-12-13T11:34:42.273Z,11.17
2022-12-13T11:37:24.111Z,10.70
2022-12-13T11:40:01.216Z,9.43
2022-12-13T11:42:35.581Z,9.07
2022-12-13T11:45:23.113Z,8.67
2022-12-13T11:48:00.616Z,9.47
2022-12-13T11:50:34.328Z,8.90
2022-12-13T11:53:23.091Z,8.87
2022-12-13T11:55:59.199Z,8.73
2022-12-13T12:01:31.087Z,8.33
2022-12-13T12:04:07.103Z,9.07
2022-12-13T12:06:44.389Z,9.33
2022-12-13T12:09:17.138Z,9.37
2022-12-13T12:11:53.606Z,9.10
2022-12-13T12:14:28.690Z,9.33
2022-12-13T12:16:59.953Z,8.57
2022-12-13T12:19:36.890Z,11.03
2022-12-13T12:22:17.546Z,9.73
2022-12-13T12:25:12.544Z,10.63
2022-12-13T12:27:49.639Z,10.80
2022-12-13T12:30:23.747Z,10.30
2022-12-13T12:32:59.069Z,9.60
2022-12-13T12:36:04.838Z,9.80
2022-12-13T12:38:56.262Z,9.87
2022-12-13T12:41:45.318Z,10.13
2022-12-13T12:44:31.106Z,10.13
2022-12-13T12:47:38.264Z,10.70
2022-12-13T12:50:23.883Z,9.70
2022-12-13T12:53:02.484Z,10.27
2022-12-13T12:55:49.461Z,9.07
2022-12-13T12:58:31.220Z,9.30
2022-12-13T13:01:17.868Z,10.10
2022-12-13T13:03:47.938Z,10.63
2022-12-13T13:06:22.076Z,9.33
2022-12-13T13:08:56.990Z,8.83
2022-12-13T13:11:27.162Z,9.23
2022-12-13T13:14:08.380Z,10.30
2022-12-13T13:16:40.357Z,9.30
2022-12-13T13:19:40.712Z,9.80
2022-12-13T13:22:31.111Z,9.90
2022-12-13T13:25:21.874Z,10.07
2022-12-13T13:27:53.012Z,9.27
2022-12-13T13:30:25.594Z,9.70
2022-12-13T13:32:56.846Z,9.30
2022-12-13T13:35:54.774Z,9.50
2022-12-13T13:38:55.090Z,10.87
2022-12-13T13:41:56.721Z,10.43
2022-12-13T13:44:54.327Z,10.27
2022-12-13T13:47:53.838Z,9.17
2022-12-13T13:51:14.178Z,10.10
2022-12-13T13:54:03.740Z,10.17
2022-12-13T13:57:16.480Z,9.67
2022-12-13T14:00:22.649Z,9.57
2022-12-13T14:03:34.083Z,10.30
2022-12-13T14:06:53.512Z,11.07
2022-12-13T14:09:51.961Z,10.47
2022-12-13T14:13:01.281Z,9.63
2022-12-13T14:16:03.404Z,10.30
2022-12-13T14:19:11.261Z,10.37
2022-12-13T14:22:02.629Z,10.27
2022-12-13T14:24:41.456Z,11.07
2022-12-13T14:27:22.310Z,11.27
2022-12-13T14:29:58.247Z,10.47
2022-12-13T14:32:30.596Z,10.53
2022-12-13T14:35:24.722Z,10.27
2022-12-13T14:38:02.101Z,10.63
2022-12-13T14:40:33.814Z,10.70
2022-12-13T14:43:03.731Z,10.70
2022-12-13T14:45:36.904Z,11.00
2022-12-13T14:48:10.175Z,10.97
2022-12-13T14:50:41.620Z,9.30
2022-12-13T14:53:26.894Z,11.37
2022-12-13T14:56:08.213Z,11.43
2022-12-13T14:58:37.914Z,10.57
2022-12-13T15:01:08.777Z,11.57
2022-12-13T15:03:38.233Z,11.67
2022-12-13T15:06:08.289Z,10.10
2022-12-13T15:08:39.525Z,12.47
2022-12-13T15:11:11.411Z,11.77
2022-12-13T15:13:42.617Z,11.87
2022-12-13T15:16:20.015Z,11.70
2022-12-13T15:19:10.842Z,11.30
2022-12-13T15:21:43.110Z,12.00
2022-12-13T15:24:15.153Z,11.27
2022-12-13T15:26:48.654Z,11.13
2022-12-13T15:29:22.576Z,11.03
2022-12-13T15:31:51.716Z,10.70
2022-12-13T15:34:35.700Z,13.00
2022-12-13T15:37:06.993Z,12.20
2022-12-13T15:39:48.121Z,11.23
2022-12-13T15:42:23.434Z,11.13
2022-12-13T15:44:55.773Z,12.03
2022-12-13T15:47:28.084Z,12.37
2022-12-13T15:49:59.940Z,12.47
2022-12-13T15:52:36.098Z,12.77
2022-12-13T15:58:00.090Z,13.47
2022-12-13T16:00:31.797Z,14.63
2022-12-13T16:03:09.231Z,14.37
2022-12-13T16:05:41.833Z,14.17
2022-12-13T16:08:26.550Z,14.03
2022-12-13T16:10:56.527Z,14.80
2022-12-13T16:13:30.035Z,14.67
2022-12-13T16:16:08.821Z,14.30
2022-12-13T16:18:47.468Z,14.27
2022-12-13T16:21:16.578Z,14.77
2022-12-13T16:23:48.499Z,14.00
2022-12-13T16:26:25.824Z,14.60
2022-12-13T16:28:58.905Z,13.47
2022-12-13T16:31:35.808Z,14.57
2022-12-13T16:34:05.510Z,13.73
2022-12-13T16:36:34.755Z,13.90
2022-12-13T16:39:04.054Z,13.80
2022-12-13T16:41:36.817Z,13.87
2022-12-13T16:44:10.986Z,14.63
2022-12-13T16:47:12.088Z,13.80
2022-12-13T16:49:32.297Z,12.77
2022-12-13T16:52:03.282Z,13.83
2022-12-13T16:54:32.842Z,13.87
2022-12-13T16:57:04.318Z,14.23
2022-12-13T16:59:35.450Z,13.20
2022-12-13T17:02:06.689Z,13.60
2022-12-13T17:04:42.407Z,12.50
2022-12-13T17:07:12.817Z,13.30
2022-12-13T17:09:43.278Z,13.00
2022-12-13T17:12:15.290Z,13.10
2022-12-13T17:14:46.558Z,12.50
2022-12-13T17:17:17.693Z,12.77
2022-12-13T17:19:49.920Z,12.87
2022-12-13T17:22:21.449Z,12.83
2022-12-13T17:24:51.591Z,12.97
2022-12-13T17:27:23.115Z,12.90
2022-12-13T17:29:57.901Z,12.83
2022-12-13T17:32:27.910Z,12.07
2022-12-13T17:35:05.799Z,13.03
2022-12-13T17:37:36.230Z,12.30
2022-12-13T17:40:07.254Z,13.13
2022-12-13T17:42:36.629Z,12.80
2022-12-13T17:45:08.875Z,13.67
2022-12-13T17:47:40.071Z,15.37
2022-12-13T17:50:11.516Z,14.57
2022-12-13T17:52:42.140Z,15.83
2022-12-13T17:55:17.949Z,15.20
2022-12-13T17:57:48.001Z,15.97
2022-12-13T18:00:19.737Z,16.10
2022-12-13T18:02:55.377Z,17.10
2022-12-13T18:05:26.701Z,16.57
2022-12-13T18:07:57.336Z,17.87
2022-12-13T18:10:30.099Z,16.30
2022-12-13T18:13:01.589Z,17.20
2022-12-13T18:15:37.421Z,16.53
2022-12-13T18:18:11.654Z,16.87
2022-12-13T18:20:42.268Z,18.67
2022-12-13T18:23:12.996Z,18.30
2022-12-13T18:25:43.919Z,18.60
2022-12-13T18:28:14.131Z,18.23
2022-12-13T18:30:46.081Z,17.80
2022-12-13T18:33:18.010Z,18.03
2022-12-13T18:35:47.720Z,18.27
2022-12-13T18:38:18.071Z,18.03
2022-12-13T18:40:48.629Z,17.33
2022-12-13T18:43:18.598Z,17.57
2022-12-13T18:45:50.027Z,18.13
2022-12-13T18:48:24.968Z,18.93
2022-12-13T18:50:55.719Z,19.10
2022-12-13T18:53:27.181Z,18.87
2022-12-13T18:56:03.422Z,20.10
2022-12-13T18:58:34.522Z,20.17
2022-12-13T19:01:07.345Z,19.37
2022-12-13T19:03:39.464Z,18.83
2022-12-13T19:06:10.376Z,19.53
2022-12-13T19:08:44.555Z,20.73
2022-12-13T19:11:17.114Z,19.27
2022-12-13T19:13:52.369Z,19.93
2022-12-13T19:16:27.456Z,19.87
2022-12-13T19:19:00.112Z,19.90
2022-12-13T19:21:33.019Z,20.07
2022-12-13T19:24:05.283Z,19.80
2022-12-13T19:26:38.968Z,19.83
2022-12-13T19:29:12.758Z,20.43
2022-12-13T19:31:45.041Z,20.53
2022-12-13T19:34:18.134Z,19.43
2022-12-13T19:36:48.994Z,20.23
2022-12-13T19:39:21.320Z,20.50
2022-12-13T19:41:52.840Z,20.90
2022-12-13T19:44:26.294Z,19.83
2022-12-13T19:47:00.803Z,19.83
2022-12-13T19:49:32.854Z,20.23
2022-12-13T19:52:04.628Z,18.87
2022-12-13T19:54:37.734Z,20.33
2022-12-13T19:57:12.150Z,19.20
2022-12-13T19:59:46.060Z,19.70
2022-12-13T20:02:19.312Z,19.83
2022-12-13T20:04:52.470Z,19.33
2022-12-13T20:07:28.418Z,20.53
2022-12-13T20:10:01.761Z,18.73
2022-12-13T20:12:38.862Z,21.07
2022-12-13T20:15:13.595Z,18.53
2022-12-13T20:17:47.391Z,20.73
2022-12-13T20:20:18.059Z,20.30
2022-12-13T20:22:49.114Z,19.93
2022-12-13T20:25:20.539Z,20.80
2022-12-13T20:27:52.100Z,21.30
2022-12-13T20:30:27.455Z,20.33
2022-12-13T20:33:00.097Z,21.77
2022-12-13T20:35:31.445Z,21.77
2022-12-13T20:38:05.040Z,23.47
2022-12-13T20:40:40.132Z,23.27
2022-12-13T20:43:20.324Z,23.83
2022-12-13T20:45:51.026Z,23.43
2022-12-13T20:48:24.998Z,23.00
2022-12-13T20:51:11.404Z,23.50
2022-12-13T20:53:44.795Z,23.30
2022-12-13T20:56:17.893Z,24.77
2022-12-13T20:58:49.082Z,24.33
2022-12-13T21:01:22.084Z,23.23
2022-12-13T21:03:56.055Z,23.17
2022-12-13T21:06:25.878Z,23.37
2022-12-13T21:08:57.377Z,22.27
2022-12-13T21:11:29.057Z,23.97
2022-12-13T21:14:07.129Z,23.67
2022-12-13T21:16:43.173Z,24.67
2022-12-13T21:19:15.678Z,23.17
2022-12-13T21:21:45.179Z,23.83
2022-12-13T21:24:16.459Z,24.20
2022-12-13T21:26:46.162Z,22.90
2022-12-13T21:29:17.460Z,23.33
2022-12-13T21:31:50.206Z,24.57
2022-12-13T21:34:22.009Z,24.90
2022-12-13T21:36:53.414Z,24.07
2022-12-13T21:39:24.415Z,23.07
2022-12-13T21:41:54.781Z,23.87
2022-12-13T21:44:24.049Z,23.57
2022-12-13T21:49:48.750Z,23.20
2022-12-13T21:52:18.706Z,25.53
2022-12-13T21:54:47.775Z,23.67
2022-12-13T21:57:34.178Z,24.70
2022-12-13T22:00:03.258Z,25.00
2022-12-13T22:02:41.914Z,25.00
2022-12-13T22:05:12.687Z,23.80
2022-12-13T22:07:41.666Z,25.17
2022-12-13T22:10:11.120Z,24.03
2022-12-13T22:12:42.178Z,23.77
2022-12-13T22:15:13.723Z,25.70
2022-12-13T22:17:43.978Z,24.03
2022-12-13T22:20:16.154Z,25.13
2022-12-13T22:22:47.218Z,24.30
2022-12-13T22:25:16.398Z,26.07
2022-12-13T22:27:46.423Z,25.23
2022-12-13T22:30:15.635Z,24.63
2022-12-13T22:32:44.779Z,26.60
2022-12-13T22:35:15.397Z,25.17
2022-12-13T22:37:44.428Z,24.97
2022-12-13T22:40:18.078Z,26.30
2022-12-13T22:42:48.503Z,26.30
2022-12-13T22:45:17.862Z,26.33
2022-12-13T22:47:46.935Z,29.10
2022-12-13T22:50:17.537Z,25.67
2022-12-13T22:52:48.400Z,27.00
2022-12-13T22:55:17.673Z,23.93
2022-12-13T22:57:48.524Z,26.70
2022-12-13T23:00:18.259Z,26.77
2022-12-13T23:02:47.496Z,26.60
2022-12-13T23:05:18.102Z,24.97
2022-12-13T23:07:48.694Z,26.40
2022-12-13T23:10:35.148Z,25.97
2022-12-13T23:13:04.122Z,27.23
2022-12-13T23:15:37.940Z,27.07
2022-12-13T23:18:07.083Z,25.93
2022-12-13T23:20:37.537Z,27.37
2022-12-13T23:23:07.458Z,26.27
2022-12-13T23:25:36.492Z,26.07
2022-12-13T23:28:05.678Z,27.20
2022-12-13T23:30:34.701Z,28.57
2022-12-13T23:33:03.724Z,27.47
2022-12-13T23:35:33.175Z,28.07
2022-12-13T23:38:03.609Z,28.20
2022-12-13T23:40:32.670Z,28.67
2022-12-13T23:43:01.672Z,28.30
2022-12-13T23:45:30.680Z,26.30
2022-12-13T23:47:59.731Z,28.43
2022-12-13T23:50:28.763Z,28.27
2022-12-13T23:52:57.832Z,27.13
2022-12-13T23:55:28.243Z,27.27
2022-12-13T23:57:57.303Z,27.60
